createdAt,value
2022-08-31T00:01:29.455Z,7.45
2022-08-31T00:06:35.368Z,6.28
2022-08-31T00:16:46.427Z,6.47
2022-08-31T00:21:50.558Z,6.85
2022-08-31T00:26:54.663Z,6.45
2022-08-31T00:32:00.351Z,6.22
2022-08-31T00:37:04.592Z,6.90
2022-08-31T00:42:10.626Z,7.00
2022-08-31T00:47:16.607Z,7.20
2022-08-31T00:52:23.178Z,6.97
2022-08-31T00:57:34.057Z,6.35
2022-08-31T01:02:40.386Z,6.72
2022-08-31T01:07:47.839Z,6.93
2022-08-31T01:12:53.565Z,6.65
2022-08-31T01:18:01.242Z,7.43
2022-08-31T01:23:11.507Z,6.85
2022-08-31T01:28:15.964Z,6.57
2022-08-31T01:33:20.132Z,7.15
2022-08-31T01:38:25.918Z,6.90
2022-08-31T01:43:31.034Z,7.07
2022-08-31T01:48:35.098Z,6.82
2022-08-31T01:53:48.798Z,7.10
2022-08-31T01:58:52.899Z,7.60
2022-08-31T02:04:32.359Z,6.70
2022-08-31T02:09:37.761Z,7.30
2022-08-31T02:14:42.772Z,6.80
2022-08-31T02:19:46.835Z,7.38
2022-08-31T02:24:53.038Z,7.60
2022-08-31T02:29:57.059Z,8.00
2022-08-31T02:35:01.243Z,7.40
2022-08-31T02:40:11.520Z,7.68
2022-08-31T02:45:18.310Z,7.78
2022-08-31T02:50:22.457Z,7.85
2022-08-31T02:55:28.838Z,8.70
2022-08-31T03:00:34.073Z,8.07
2022-08-31T03:05:38.258Z,9.50
2022-08-31T03:10:43.734Z,8.23
2022-08-31T03:15:48.659Z,8.20
2022-08-31T03:20:53.798Z,8.85
2022-08-31T03:25:59.327Z,8.93
2022-08-31T03:36:08.374Z,9.52
2022-08-31T03:41:16.511Z,9.48
2022-08-31T03:46:22.069Z,9.52
2022-08-31T03:51:26.200Z,9.52
2022-08-31T03:56:31.673Z,9.65
2022-08-31T04:01:37.492Z,10.35
2022-08-31T04:07:02.029Z,14.27
2022-08-31T04:12:25.923Z,13.18
2022-08-31T04:17:48.354Z,12.93
2022-08-31T04:23:13.862Z,13.70
2022-08-31T04:28:29.847Z,16.60
2022-08-31T04:33:33.864Z,24.20
2022-08-31T04:38:40.735Z,30.92
2022-08-31T04:43:49.351Z,33.10
2022-08-31T04:48:53.415Z,33.22
2022-08-31T04:53:58.728Z,28.70
2022-08-31T04:59:05.928Z,24.55
2022-08-31T05:04:16.106Z,26.35
2022-08-31T05:09:23.092Z,27.33
2022-08-31T05:14:31.104Z,25.92
2022-08-31T05:19:41.233Z,28.83
2022-08-31T05:24:45.614Z,29.02
2022-08-31T05:29:52.038Z,92.72
2022-08-31T05:35:21.959Z,91.60
2022-08-31T05:40:26.874Z,124.03
2022-08-31T05:45:32.502Z,59.55
2022-08-31T05:50:38.221Z,24.27
2022-08-31T05:55:43.123Z,12.73
2022-08-31T06:00:48.591Z,11.13
2022-08-31T06:06:15.992Z,9.50
2022-08-31T06:11:22.333Z,8.90
2022-08-31T06:16:32.405Z,9.93
2022-08-31T06:21:50.173Z,9.35
2022-08-31T06:27:06.150Z,8.60
2022-08-31T06:32:15.793Z,8.30
2022-08-31T06:37:35.649Z,8.20
2022-08-31T06:42:59.874Z,8.63
2022-08-31T06:48:25.477Z,8.50
2022-08-31T06:58:42.898Z,8.40
2022-08-31T07:04:03.764Z,9.27
2022-08-31T07:09:09.831Z,8.23
2022-08-31T07:14:16.070Z,8.60
2022-08-31T07:19:23.160Z,8.25
2022-08-31T07:24:29.066Z,8.05
2022-08-31T07:29:40.763Z,9.23
2022-08-31T07:40:36.797Z,7.43
2022-08-31T07:45:44.091Z,7.97
2022-08-31T07:50:54.401Z,8.70
2022-08-31T07:56:34.657Z,8.00
2022-08-31T08:01:50.844Z,8.00
2022-08-31T08:07:00.348Z,8.25
2022-08-31T08:12:25.305Z,7.97
2022-08-31T08:17:45.475Z,7.63
2022-08-31T08:22:55.104Z,8.23
2022-08-31T08:28:29.108Z,8.88
2022-08-31T08:33:36.549Z,7.47
2022-08-31T08:38:43.966Z,7.82
2022-08-31T08:43:52.788Z,6.97
2022-08-31T08:49:02.002Z,7.82
2022-08-31T08:54:12.679Z,7.43
2022-08-31T08:59:20.200Z,7.47
2022-08-31T09:05:00.382Z,7.55
2022-08-31T09:10:27.715Z,7.38
2022-08-31T09:15:53.697Z,8.10
2022-08-31T09:21:07.967Z,7.55
2022-08-31T09:26:17.386Z,7.60
2022-08-31T09:36:42.787Z,6.78
2022-08-31T09:41:49.689Z,6.72
2022-08-31T09:46:56.743Z,6.78
2022-08-31T09:52:20.035Z,7.40
2022-08-31T09:57:43.926Z,6.35
2022-08-31T10:02:50.188Z,6.78
2022-08-31T10:08:04.450Z,6.22
2022-08-31T10:13:15.208Z,5.93
2022-08-31T10:18:24.149Z,6.03
2022-08-31T10:23:35.683Z,6.60
2022-08-31T10:28:49.181Z,6.30
2022-08-31T10:34:15.607Z,5.65
2022-08-31T10:39:26.361Z,6.47
2022-08-31T10:44:36.526Z,6.07
2022-08-31T10:49:40.546Z,5.72
2022-08-31T10:54:49.275Z,6.35
2022-08-31T11:00:03.522Z,6.45
2022-08-31T11:05:26.246Z,7.68
2022-08-31T11:10:42.561Z,6.63
2022-08-31T11:15:59.069Z,7.38
2022-08-31T11:21:17.403Z,7.40
2022-08-31T11:26:39.155Z,7.95
2022-08-31T11:31:44.893Z,8.05
2022-08-31T11:36:52.064Z,8.77
2022-08-31T11:41:59.318Z,8.07
2022-08-31T11:47:08.078Z,7.93
2022-08-31T11:52:32.247Z,8.05
2022-08-31T11:58:33.886Z,8.70
2022-08-31T12:03:45.957Z,8.07
2022-08-31T12:08:54.722Z,8.35
2022-08-31T12:14:03.770Z,7.50
2022-08-31T12:19:46.062Z,7.18
2022-08-31T12:25:03.560Z,7.65
2022-08-31T12:30:19.183Z,7.43
2022-08-31T12:35:26.196Z,5.95
2022-08-31T12:40:33.179Z,7.05
2022-08-31T12:46:01.409Z,5.40
2022-08-31T12:51:14.052Z,5.13
2022-08-31T12:56:21.131Z,5.97
2022-08-31T13:01:27.437Z,5.80
2022-08-31T13:06:34.612Z,6.47
2022-08-31T13:11:41.797Z,6.65
2022-08-31T13:16:47.773Z,5.65
2022-08-31T13:21:56.363Z,6.15
2022-08-31T13:27:09.787Z,6.38
2022-08-31T13:32:16.803Z,5.10
2022-08-31T13:37:28.199Z,7.13
2022-08-31T13:42:35.568Z,5.68
2022-08-31T13:47:56.684Z,6.53
2022-08-31T13:58:31.567Z,5.72
2022-08-31T14:03:46.564Z,5.93
2022-08-31T14:08:55.031Z,5.55
2022-08-31T14:14:06.196Z,6.03
2022-08-31T14:19:11.346Z,5.80
2022-08-31T14:24:16.775Z,6.32
2022-08-31T14:29:20.720Z,6.80
2022-08-31T14:34:27.043Z,9.70
2022-08-31T14:39:34.261Z,8.85
2022-08-31T14:44:41.539Z,11.23
2022-08-31T14:49:45.639Z,7.65
2022-08-31T14:54:51.038Z,8.67
2022-08-31T14:59:59.814Z,8.25
2022-08-31T15:05:06.544Z,10.35
2022-08-31T15:10:13.579Z,9.93
2022-08-31T15:15:19.864Z,11.32
2022-08-31T15:20:23.931Z,11.68
2022-08-31T15:25:29.469Z,11.02
2022-08-31T15:30:33.891Z,11.38
2022-08-31T15:35:41.953Z,8.87
2022-08-31T15:40:47.434Z,14.75
2022-08-31T15:45:51.576Z,8.40
2022-08-31T15:51:00.662Z,8.35
2022-08-31T15:56:09.493Z,9.30
2022-08-31T16:01:16.387Z,7.93
2022-08-31T16:06:22.826Z,7.43
2022-08-31T16:11:31.243Z,7.25
2022-08-31T16:16:37.358Z,7.65
2022-08-31T16:21:45.286Z,7.40
2022-08-31T16:26:55.071Z,7.47
2022-08-31T16:31:59.231Z,7.10
2022-08-31T16:37:07.364Z,7.85
2022-08-31T16:42:13.362Z,7.55
2022-08-31T16:47:18.854Z,7.60
2022-08-31T16:57:32.787Z,7.63
2022-08-31T17:02:37.002Z,7.22
2022-08-31T17:07:42.851Z,7.45
2022-08-31T17:12:48.413Z,8.20
2022-08-31T17:22:56.060Z,8.48
2022-08-31T17:28:07.373Z,9.50
2022-08-31T17:33:12.773Z,8.68
2022-08-31T17:38:17.100Z,9.63
2022-08-31T17:43:22.332Z,9.13
2022-08-31T17:48:29.068Z,10.20
2022-08-31T17:53:34.326Z,9.10
2022-08-31T17:58:39.702Z,8.30
2022-08-31T18:03:43.594Z,7.20
2022-08-31T18:08:47.572Z,8.18
2022-08-31T18:13:53.739Z,8.05
2022-08-31T18:18:57.687Z,7.85
2022-08-31T18:24:01.606Z,8.80
2022-08-31T18:29:08.746Z,10.57
2022-08-31T18:34:15.109Z,11.23
2022-08-31T18:39:34.745Z,9.93
2022-08-31T18:45:04.673Z,8.80
2022-08-31T18:50:09.192Z,9.00
2022-08-31T18:55:13.207Z,8.30
2022-08-31T19:00:19.242Z,8.68
2022-08-31T19:05:23.146Z,8.55
2022-08-31T19:10:27.452Z,9.32
2022-08-31T19:15:35.146Z,9.00
2022-08-31T19:20:40.411Z,9.65
2022-08-31T19:25:45.292Z,9.95
2022-08-31T19:30:50.823Z,9.37
2022-08-31T19:36:04.585Z,9.20
2022-08-31T19:41:15.774Z,9.07
2022-08-31T19:46:23.552Z,9.75
2022-08-31T19:51:29.177Z,10.23
2022-08-31T19:56:33.103Z,10.13
2022-08-31T20:01:40.020Z,10.68
2022-08-31T20:06:49.119Z,10.00
2022-08-31T20:12:00.045Z,10.43
2022-08-31T20:17:08.619Z,10.10
2022-08-31T20:22:13.583Z,10.25
2022-08-31T20:27:18.766Z,9.13
2022-08-31T20:32:25.946Z,8.18
2022-08-31T20:37:29.913Z,8.02
2022-08-31T20:42:33.889Z,7.53
2022-08-31T20:47:57.439Z,7.57
2022-08-31T20:53:01.437Z,7.53
2022-08-31T20:58:06.825Z,9.45
2022-08-31T21:03:14.546Z,10.35
2022-08-31T21:08:20.932Z,12.48
2022-08-31T21:13:24.828Z,14.18
2022-08-31T21:18:31.230Z,16.17
2022-08-31T21:23:35.630Z,20.25
2022-08-31T21:28:39.489Z,26.65
2022-08-31T21:33:45.343Z,30.70
2022-08-31T21:38:49.215Z,33.78
2022-08-31T21:43:54.484Z,38.42
2022-08-31T21:49:00.707Z,43.30
2022-08-31T21:54:06.974Z,47.97
2022-08-31T21:59:11.361Z,54.70
2022-08-31T22:04:20.083Z,61.65
2022-08-31T22:09:24.671Z,63.80
2022-08-31T22:14:32.037Z,61.85
2022-08-31T22:19:39.497Z,66.07
2022-08-31T22:24:43.403Z,64.03
2022-08-31T22:29:48.323Z,56.58
2022-08-31T22:34:53.620Z,52.95
2022-08-31T22:39:57.489Z,48.87
2022-08-31T22:45:01.883Z,49.42
2022-08-31T22:50:08.191Z,52.50
2022-08-31T22:55:12.024Z,53.90
2022-08-31T23:00:17.756Z,54.53
2022-08-31T23:05:23.901Z,45.90
2022-08-31T23:10:28.551Z,44.78
2022-08-31T23:15:33.665Z,40.13
2022-08-31T23:20:41.877Z,29.90
2022-08-31T23:25:45.919Z,28.38
2022-08-31T23:30:51.807Z,23.50
2022-08-31T23:35:57.111Z,18.05
2022-08-31T23:41:01.302Z,16.93
2022-08-31T23:46:05.241Z,13.40
2022-08-31T23:51:11.327Z,13.20
